Time;durP1;ratioP1;P1;durP2;ratioP2;P2;SDS_P1;SDS_P2;PMS_P1;PMS_P2;Temp;Humidity;BMP_temperature;BMP_pressure;BME280_temperature;BME280_humidity;BME280_pressure;Samples;Min_cycle;Max_cycle;Signal;HPM_P1;HPM_P2
2022/12/20 00:02:19;;;;;;;;;;;22.40;85.70;;;;;;5033876;28;19966;-72
2022/12/20 00:04:46;;;;;;;;;;;22.50;85.00;;;;;;5045122;28;20294;-69
2022/12/20 00:07:12;;;;;;;;;;;22.60;85.00;;;;;;5036578;28;19913;-71
2022/12/20 00:09:39;;;;;;;;;;;22.60;85.30;;;;;;5042203;28;19912;-72
2022/12/20 00:12:06;;;;;;;;;;;22.60;83.50;;;;;;5051240;28;19920;-72
2022/12/20 00:14:32;;;;;;;;;;;22.60;84.00;;;;;;5045695;28;19998;-71
2022/12/20 00:16:59;;;;;;;;;;;22.60;84.40;;;;;;5054079;28;19999;-73
2022/12/20 00:19:25;;;;;;;;;;;22.40;85.00;;;;;;5047337;28;19909;-71
2022/12/20 00:21:52;;;;;;;;;;;22.50;84.20;;;;;;5054506;28;19913;-73
2022/12/20 00:24:19;;;;;;;;;;;22.60;83.90;;;;;;5052040;28;19927;-72
2022/12/20 00:26:45;;;;;;;;;;;22.80;83.20;;;;;;5042384;28;19954;-72
2022/12/20 00:29:12;;;;;;;;;;;22.80;83.60;;;;;;5042168;28;19913;-69
2022/12/20 00:31:39;;;;;;;;;;;22.70;84.40;;;;;;5045989;28;19909;-72
2022/12/20 00:34:06;;;;;;;;;;;22.80;84.30;;;;;;5053843;28;19920;-72
2022/12/20 00:36:32;;;;;;;;;;;22.80;83.90;;;;;;5038979;28;19921;-72
2022/12/20 00:39:00;;;;;;;;;;;22.80;83.90;;;;;;5038600;28;21465;-73
2022/12/20 00:41:28;;;;;;;;;;;22.80;83.70;;;;;;5034252;28;19920;-71
2022/12/20 00:43:57;;;;;;;;;;;22.70;83.90;;;;;;5035648;28;19921;-72
2022/12/20 00:46:24;;;;;;;;;;;22.40;84.40;;;;;;5049298;28;19940;-69
2022/12/20 00:48:51;;;;;;;;;;;22.40;85.20;;;;;;5043114;28;19908;-69
2022/12/20 00:51:20;;;;;;;;;;;22.30;85.40;;;;;;5052727;28;19908;-70
2022/12/20 00:53:49;;;;;;;;;;;22.40;85.20;;;;;;5055154;28;20023;-70
2022/12/20 00:56:16;;;;;;;;;;;22.50;84.40;;;;;;5032595;28;19921;-70
2022/12/20 00:58:43;;;;;;;;;;;22.50;84.70;;;;;;5041389;28;19927;-70
2022/12/20 01:01:20;;;;;;;;;;;22.50;83.80;;;;;;5043334;28;20369;-69
2022/12/20 01:03:49;;;;;;;;;;;22.60;83.50;;;;;;5054329;28;20003;-70
2022/12/20 01:06:20;;;;;;;;;;;22.50;84.40;;;;;;5056270;28;19909;-70
2022/12/20 01:08:52;;;;;;;;;;;22.50;83.90;;;;;;5046553;28;19912;-69
2022/12/20 01:11:29;;;;;;;;;;;22.50;85.60;;;;;;5056408;28;19918;-71
2022/12/20 01:13:57;;;;;;;;;;;22.80;83.90;;;;;;5052841;28;19920;-68
2022/12/20 01:16:25;;;;;;;;;;;22.90;83.10;;;;;;5034544;28;20584;-70
2022/12/20 01:18:52;;;;;;;;;;;23.10;83.00;;;;;;5041326;28;19920;-70
2022/12/20 01:21:20;;;;;;;;;;;23.00;81.80;;;;;;5037288;28;19916;-71
2022/12/20 01:23:47;;;;;;;;;;;23.10;80.80;;;;;;5047600;28;19930;-71
2022/12/20 01:26:15;;;;;;;;;;;23.00;82.30;;;;;;5041862;28;20188;-70
2022/12/20 01:28:42;;;;;;;;;;;22.70;82.70;;;;;;5042865;28;20019;-72
2022/12/20 01:31:10;;;;;;;;;;;22.60;83.50;;;;;;5046840;28;19958;-71
2022/12/20 01:33:37;;;;;;;;;;;22.70;82.30;;;;;;5054014;28;20738;-70
2022/12/20 01:36:07;;;;;;;;;;;22.70;83.00;;;;;;5058419;28;19958;-71
2022/12/20 01:38:34;;;;;;;;;;;22.70;83.70;;;;;;5039509;28;19909;-71
2022/12/20 01:41:01;;;;;;;;;;;23.00;83.50;;;;;;5044777;28;19994;-69
2022/12/20 01:43:47;;;;;;;;;;;23.30;82.30;;;;;;5054083;28;20516;-70
2022/12/20 01:46:14;;;;;;;;;;;23.60;81.30;;;;;;5054092;28;19970;-69
2022/12/20 01:48:42;;;;;;;;;;;23.70;80.90;;;;;;5055657;28;19939;-69
2022/12/20 01:51:09;;;;;;;;;;;23.80;80.80;;;;;;5054451;28;20289;-70
2022/12/20 01:53:35;;;;;;;;;;;23.90;81.20;;;;;;5056076;28;19917;-70
2022/12/20 01:56:05;;;;;;;;;;;23.70;81.20;;;;;;5054998;28;19913;-71
2022/12/20 01:58:32;;;;;;;;;;;23.70;82.20;;;;;;5054198;28;19966;-70
2022/12/20 02:00:59;;;;;;;;;;;23.80;80.30;;;;;;5053135;28;20369;-69
2022/12/20 02:03:26;;;;;;;;;;;24.00;79.70;;;;;;5055564;28;19915;-71
2022/12/20 02:05:53;;;;;;;;;;;24.10;78.60;;;;;;5045441;28;19920;-72
2022/12/20 02:08:19;;;;;;;;;;;24.00;77.80;;;;;;5049633;28;19909;-70
2022/12/20 02:10:56;;;;;;;;;;;23.90;78.20;;;;;;5053085;28;19913;-68
2022/12/20 02:13:32;;;;;;;;;;;23.90;77.80;;;;;;5054907;28;19923;-69
2022/12/20 02:15:59;;;;;;;;;;;23.90;78.10;;;;;;5055345;28;19931;-70
2022/12/20 02:18:28;;;;;;;;;;;24.10;77.10;;;;;;5038202;28;19995;-72
2022/12/20 02:21:13;;;;;;;;;;;24.10;77.50;;;;;;5039275;28;19913;-68
2022/12/20 02:23:45;;;;;;;;;;;24.30;79.10;;;;;;5054735;28;19908;-69
2022/12/20 02:26:20;;;;;;;;;;;24.50;78.90;;;;;;5054487;28;19920;-70
2022/12/20 02:28:49;;;;;;;;;;;24.60;78.00;;;;;;5051619;28;19923;-69
2022/12/20 02:31:18;;;;;;;;;;;24.40;78.50;;;;;;5053412;28;20372;-70
2022/12/20 02:33:49;;;;;;;;;;;24.50;76.30;;;;;;5053316;28;19925;-69
2022/12/20 02:36:18;;;;;;;;;;;24.60;77.80;;;;;;5054942;28;20691;-71
2022/12/20 02:38:45;;;;;;;;;;;24.90;75.40;;;;;;5052813;28;20009;-71
2022/12/20 02:41:11;;;;;;;;;;;24.80;77.10;;;;;;5054542;28;19962;-68
2022/12/20 02:46:26;;;;;;;;;;;24.80;79.70;;;;;;5054192;28;19915;-70
2022/12/20 02:48:55;;;;;;;;;;;25.00;76.20;;;;;;5052982;28;19923;-68
2022/12/20 02:51:22;;;;;;;;;;;25.10;75.20;;;;;;5053246;28;19908;-71
2022/12/20 02:53:49;;;;;;;;;;;25.30;74.40;;;;;;5053516;28;20012;-69
2022/12/20 02:56:16;;;;;;;;;;;25.40;76.00;;;;;;5054269;28;19912;-70
2022/12/20 02:58:49;;;;;;;;;;;25.70;75.50;;;;;;5035008;28;19916;-68
2022/12/20 03:01:24;;;;;;;;;;;26.10;73.20;;;;;;5053321;28;19920;-70
2022/12/20 03:03:50;;;;;;;;;;;26.60;74.00;;;;;;5053770;28;19935;-68
2022/12/20 03:06:17;;;;;;;;;;;27.40;72.20;;;;;;5052926;28;19922;-70
2022/12/20 03:08:44;;;;;;;;;;;27.50;71.20;;;;;;5052799;28;19912;-66
2022/12/20 03:11:10;;;;;;;;;;;28.40;71.10;;;;;;5049262;28;20031;-71
2022/12/20 03:13:37;;;;;;;;;;;29.20;68.20;;;;;;5051701;28;20011;-70
2022/12/20 03:16:04;;;;;;;;;;;29.40;65.70;;;;;;5054306;28;19908;-70
2022/12/20 03:18:30;;;;;;;;;;;29.50;66.90;;;;;;5053553;28;19909;-68
2022/12/20 03:20:57;;;;;;;;;;;30.10;65.80;;;;;;5053156;28;19915;-70
2022/12/20 03:23:24;;;;;;;;;;;30.90;64.50;;;;;;5053590;28;19955;-69
2022/12/20 03:25:50;;;;;;;;;;;31.30;63.70;;;;;;5053777;28;20079;-69
2022/12/20 03:28:17;;;;;;;;;;;31.10;63.90;;;;;;5039047;28;19966;-69
2022/12/20 03:30:44;;;;;;;;;;;32.00;61.30;;;;;;5040878;28;19991;-71
2022/12/20 03:33:11;;;;;;;;;;;31.90;60.70;;;;;;5053452;28;19925;-71
2022/12/20 03:35:38;;;;;;;;;;;32.30;59.90;;;;;;5052524;28;19995;-72
2022/12/20 03:38:04;;;;;;;;;;;32.50;60.10;;;;;;5053099;28;20372;-70
2022/12/20 03:40:31;;;;;;;;;;;33.00;59.10;;;;;;5052467;28;19916;-68
2022/12/20 03:42:57;;;;;;;;;;;32.50;59.20;;;;;;5053013;28;19948;-70
2022/12/20 03:45:24;;;;;;;;;;;33.00;58.80;;;;;;5051296;28;19915;-71
2022/12/20 03:47:51;;;;;;;;;;;33.30;58.70;;;;;;5051946;28;19947;-70
2022/12/20 03:50:17;;;;;;;;;;;33.70;58.80;;;;;;5047259;28;19964;-69
2022/12/20 03:52:44;;;;;;;;;;;34.00;57.70;;;;;;5049208;28;19939;-70
2022/12/20 03:55:11;;;;;;;;;;;33.70;57.20;;;;;;5053490;28;20039;-68
2022/12/20 03:57:38;;;;;;;;;;;33.60;58.40;;;;;;5053222;28;19916;-70
2022/12/20 04:00:05;;;;;;;;;;;33.60;58.20;;;;;;5051855;28;20008;-68
2022/12/20 04:02:32;;;;;;;;;;;34.30;57.70;;;;;;5051205;28;19974;-70
2022/12/20 04:04:58;;;;;;;;;;;34.10;55.80;;;;;;5052094;28;19962;-71
2022/12/20 04:07:25;;;;;;;;;;;34.30;58.00;;;;;;5052457;28;19909;-68
2022/12/20 04:09:51;;;;;;;;;;;35.00;54.30;;;;;;5032815;28;20008;-69
2022/12/20 04:12:18;;;;;;;;;;;35.40;53.60;;;;;;5052067;28;19951;-69
2022/12/20 04:14:45;;;;;;;;;;;35.60;53.00;;;;;;5052306;28;19916;-73
2022/12/20 04:17:11;;;;;;;;;;;35.60;54.40;;;;;;5041647;28;19916;-69
2022/12/20 04:19:38;;;;;;;;;;;35.10;54.90;;;;;;5047510;28;20819;-69
2022/12/20 04:22:04;;;;;;;;;;;35.50;53.50;;;;;;5043436;28;19978;-70
2022/12/20 04:24:31;;;;;;;;;;;36.00;53.00;;;;;;5051432;28;20365;-70
2022/12/20 04:26:58;;;;;;;;;;;35.50;53.00;;;;;;5049291;28;19912;-68
2022/12/20 04:29:24;;;;;;;;;;;34.70;52.60;;;;;;5037315;28;20279;-69
2022/12/20 04:31:51;;;;;;;;;;;34.10;53.90;;;;;;5046554;28;19905;-71
2022/12/20 04:34:17;;;;;;;;;;;34.20;56.10;;;;;;5052949;28;20368;-72
2022/12/20 04:36:44;;;;;;;;;;;34.70;54.10;;;;;;5043425;28;19915;-73
2022/12/20 04:39:11;;;;;;;;;;;34.60;54.70;;;;;;5037071;28;19917;-73
2022/12/20 04:41:37;;;;;;;;;;;34.90;54.70;;;;;;5045947;28;19915;-72
2022/12/20 04:44:04;;;;;;;;;;;34.80;54.40;;;;;;5050607;28;19908;-72
2022/12/20 04:46:31;;;;;;;;;;;34.90;54.80;;;;;;5048932;28;19909;-72
2022/12/20 04:48:57;;;;;;;;;;;35.10;54.70;;;;;;5041626;28;19912;-69
2022/12/20 04:51:24;;;;;;;;;;;34.90;53.70;;;;;;5041508;28;19909;-71
2022/12/20 04:53:50;;;;;;;;;;;35.20;54.50;;;;;;5041438;28;19967;-71
2022/12/20 04:56:19;;;;;;;;;;;35.00;53.30;;;;;;5037846;28;19916;-70
2022/12/20 04:58:47;;;;;;;;;;;34.90;54.40;;;;;;5038418;28;19917;-71
2022/12/20 05:01:14;;;;;;;;;;;34.80;54.50;;;;;;5040561;28;20456;-70
2022/12/20 05:03:40;;;;;;;;;;;35.00;53.40;;;;;;5032273;28;20692;-70
2022/12/20 05:06:07;;;;;;;;;;;34.40;54.20;;;;;;5042774;28;20327;-71
2022/12/20 05:08:34;;;;;;;;;;;34.50;53.70;;;;;;5044578;28;19912;-73
2022/12/20 05:11:01;;;;;;;;;;;34.70;53.60;;;;;;5047371;28;19909;-71
2022/12/20 05:13:28;;;;;;;;;;;34.10;54.90;;;;;;5042013;28;19923;-71
2022/12/20 05:15:55;;;;;;;;;;;34.70;54.40;;;;;;5038786;28;20001;-71
2022/12/20 05:18:21;;;;;;;;;;;34.10;54.80;;;;;;5037979;28;20506;-72
2022/12/20 05:26:15;;;;;;;;;;;33.80;54.50;;;;;;5038972;28;19909;-71
2022/12/20 05:26:20;;;;;;;;;;;34.30;56.00;;;;;;5044446;28;20101;-71
2022/12/20 05:28:46;;;;;;;;;;;35.10;55.60;;;;;;5034657;28;19909;-71
2022/12/20 05:31:13;;;;;;;;;;;34.80;56.40;;;;;;5044985;28;20007;-70
2022/12/20 05:33:40;;;;;;;;;;;34.70;57.10;;;;;;5050889;28;19924;-72
2022/12/20 05:36:06;;;;;;;;;;;33.60;56.40;;;;;;5049243;28;19943;-71
2022/12/20 05:38:33;;;;;;;;;;;33.00;57.60;;;;;;5037509;28;19971;-72
2022/12/20 05:41:00;;;;;;;;;;;32.10;59.40;;;;;;5037580;28;19999;-72
2022/12/20 05:43:26;;;;;;;;;;;32.00;59.20;;;;;;5041090;28;19916;-72
2022/12/20 05:45:53;;;;;;;;;;;31.50;60.20;;;;;;5039829;28;19908;-72
2022/12/20 05:48:20;;;;;;;;;;;30.90;60.80;;;;;;5041097;28;19963;-71
2022/12/20 05:50:46;;;;;;;;;;;31.00;60.30;;;;;;5040389;28;20083;-72
2022/12/20 05:53:14;;;;;;;;;;;30.50;61.10;;;;;;5044451;28;19912;-69
2022/12/20 05:55:48;;;;;;;;;;;30.00;61.40;;;;;;5043448;28;20373;-70
2022/12/20 05:58:15;;;;;;;;;;;29.40;62.10;;;;;;5041601;28;19913;-69
2022/12/20 06:00:42;;;;;;;;;;;28.60;63.30;;;;;;5042915;28;20515;-69
2022/12/20 06:03:10;;;;;;;;;;;28.20;64.90;;;;;;5039344;28;20007;-70
2022/12/20 06:05:37;;;;;;;;;;;27.40;65.50;;;;;;5042929;28;20003;-70
2022/12/20 06:08:05;;;;;;;;;;;27.10;65.20;;;;;;5044408;28;19992;-70
2022/12/20 06:10:33;;;;;;;;;;;26.80;65.30;;;;;;5047037;28;19920;-71
2022/12/20 06:13:03;;;;;;;;;;;26.60;66.10;;;;;;5044925;28;20053;-70
2022/12/20 06:15:30;;;;;;;;;;;26.50;65.60;;;;;;5043129;28;19931;-71
2022/12/20 06:17:56;;;;;;;;;;;26.10;67.10;;;;;;5041925;28;19919;-71
2022/12/20 06:20:23;;;;;;;;;;;26.20;66.50;;;;;;5043254;28;19923;-71
2022/12/20 06:22:51;;;;;;;;;;;25.90;66.90;;;;;;5046211;28;19912;-71
2022/12/20 06:25:18;;;;;;;;;;;25.90;65.60;;;;;;5046419;28;19912;-70
2022/12/20 06:27:44;;;;;;;;;;;25.90;67.30;;;;;;5046270;28;20005;-71
2022/12/20 06:30:11;;;;;;;;;;;25.60;68.00;;;;;;5043358;28;19916;-71
2022/12/20 06:32:38;;;;;;;;;;;25.50;69.00;;;;;;5046671;28;19921;-70
2022/12/20 06:35:05;;;;;;;;;;;25.40;68.30;;;;;;5043045;28;19940;-73
2022/12/20 06:37:32;;;;;;;;;;;25.30;67.50;;;;;;5048882;28;19912;-69
2022/12/20 06:39:59;;;;;;;;;;;25.30;67.30;;;;;;5042491;28;20022;-71
2022/12/20 06:42:25;;;;;;;;;;;25.30;67.80;;;;;;5045115;28;19974;-70
2022/12/20 06:44:52;;;;;;;;;;;25.40;66.50;;;;;;5043556;28;20588;-71
2022/12/20 06:47:18;;;;;;;;;;;25.40;66.90;;;;;;5049581;28;19940;-69
2022/12/20 06:49:45;;;;;;;;;;;25.40;66.80;;;;;;5036456;28;19936;-70
2022/12/20 06:52:12;;;;;;;;;;;25.00;68.10;;;;;;5036150;28;19919;-69
2022/12/20 06:54:38;;;;;;;;;;;25.00;66.70;;;;;;5044595;28;19974;-69
2022/12/20 06:57:05;;;;;;;;;;;25.00;67.10;;;;;;5037259;28;20023;-68
2022/12/20 06:59:32;;;;;;;;;;;24.90;67.70;;;;;;5041342;28;20011;-69
2022/12/20 07:01:59;;;;;;;;;;;24.80;67.80;;;;;;5043653;28;19908;-69
2022/12/20 07:04:27;;;;;;;;;;;24.70;67.80;;;;;;5040933;28;19928;-70
2022/12/20 07:06:55;;;;;;;;;;;24.60;68.60;;;;;;5043657;28;19912;-69
2022/12/20 07:09:22;;;;;;;;;;;24.60;68.70;;;;;;5043450;28;19966;-70
2022/12/20 07:11:50;;;;;;;;;;;24.30;69.50;;;;;;5040941;28;19912;-71
2022/12/20 07:14:17;;;;;;;;;;;24.30;69.00;;;;;;5039856;28;19939;-70
2022/12/20 07:16:44;;;;;;;;;;;24.30;69.30;;;;;;5043009;28;19962;-71
2022/12/20 07:19:12;;;;;;;;;;;24.30;69.20;;;;;;5044655;28;20680;-70
2022/12/20 07:21:38;;;;;;;;;;;24.30;69.50;;;;;;5042457;28;19912;-72
2022/12/20 07:24:07;;;;;;;;;;;24.20;68.20;;;;;;5040799;28;19959;-71
2022/12/20 07:26:34;;;;;;;;;;;23.90;68.70;;;;;;5044218;28;19912;-71
2022/12/20 07:29:01;;;;;;;;;;;23.80;69.10;;;;;;5043967;28;20373;-71
2022/12/20 07:31:27;;;;;;;;;;;23.60;69.20;;;;;;5043749;28;20272;-71
2022/12/20 07:33:55;;;;;;;;;;;23.30;69.80;;;;;;5046120;28;20392;-71
2022/12/20 07:36:21;;;;;;;;;;;23.40;68.80;;;;;;5039510;28;20023;-71
2022/12/20 07:38:48;;;;;;;;;;;23.40;69.40;;;;;;5039851;28;19939;-71
2022/12/20 07:41:17;;;;;;;;;;;23.30;69.00;;;;;;5037796;28;19921;-71
2022/12/20 07:43:43;;;;;;;;;;;23.30;69.20;;;;;;5037147;28;19913;-71
2022/12/20 07:46:11;;;;;;;;;;;23.10;69.50;;;;;;5041110;28;19962;-68
2022/12/20 07:48:38;;;;;;;;;;;23.00;68.60;;;;;;5040750;28;19971;-70
2022/12/20 07:51:24;;;;;;;;;;;22.90;67.60;;;;;;5050551;28;19913;-70
2022/12/20 07:53:58;;;;;;;;;;;22.90;67.30;;;;;;5043000;28;19967;-70
2022/12/20 07:56:25;;;;;;;;;;;22.80;68.20;;;;;;5039207;28;20083;-71
2022/12/20 07:58:55;;;;;;;;;;;22.80;70.00;;;;;;5046577;28;20372;-71
2022/12/20 08:01:21;;;;;;;;;;;22.70;68.80;;;;;;5043361;28;19920;-71
2022/12/20 08:03:49;;;;;;;;;;;22.60;70.40;;;;;;5047161;28;19912;-71
2022/12/20 08:06:17;;;;;;;;;;;22.50;70.90;;;;;;5045528;28;20073;-70
2022/12/20 08:08:47;;;;;;;;;;;22.40;71.50;;;;;;5040056;28;20393;-70
2022/12/20 08:11:14;;;;;;;;;;;22.30;71.10;;;;;;5040730;28;19957;-70
2022/12/20 08:13:41;;;;;;;;;;;22.20;72.90;;;;;;5044075;28;19919;-70
2022/12/20 08:16:08;;;;;;;;;;;22.10;74.00;;;;;;5053806;28;19908;-71
2022/12/20 08:18:34;;;;;;;;;;;22.00;75.80;;;;;;5048337;28;20377;-69
2022/12/20 08:21:01;;;;;;;;;;;21.90;77.00;;;;;;5046251;28;19955;-69
2022/12/20 08:23:27;;;;;;;;;;;21.80;77.90;;;;;;5051314;28;20003;-69
2022/12/20 08:25:54;;;;;;;;;;;21.70;79.20;;;;;;5054085;28;20019;-70
2022/12/20 08:28:21;;;;;;;;;;;21.60;80.20;;;;;;5053463;28;20015;-69
2022/12/20 08:30:47;;;;;;;;;;;21.50;80.10;;;;;;5051259;28;20109;-70
2022/12/20 08:33:14;;;;;;;;;;;21.30;81.00;;;;;;5042152;28;20008;-70
2022/12/20 08:35:45;;;;;;;;;;;21.00;81.40;;;;;;5045652;28;20287;-70
2022/12/20 08:38:12;;;;;;;;;;;21.00;81.50;;;;;;5054474;28;20353;-71
2022/12/20 08:40:39;;;;;;;;;;;21.00;81.60;;;;;;5050882;28;19908;-71
2022/12/20 08:43:05;;;;;;;;;;;21.00;82.10;;;;;;5043145;28;19974;-72
2022/12/20 08:45:33;;;;;;;;;;;20.90;81.30;;;;;;5041190;28;19909;-72
2022/12/20 08:47:59;;;;;;;;;;;20.80;81.30;;;;;;5043546;28;20281;-71
2022/12/20 08:50:26;;;;;;;;;;;20.80;82.70;;;;;;5042652;28;20360;-70
2022/12/20 08:52:53;;;;;;;;;;;20.80;83.20;;;;;;5041564;28;19909;-71
2022/12/20 08:55:19;;;;;;;;;;;20.60;83.00;;;;;;5042327;28;19917;-71
2022/12/20 08:57:46;;;;;;;;;;;20.60;82.70;;;;;;5043035;28;19909;-70
2022/12/20 09:00:13;;;;;;;;;;;20.40;82.70;;;;;;5043344;28;19917;-70
2022/12/20 09:02:40;;;;;;;;;;;20.40;83.00;;;;;;5041852;28;19923;-71
2022/12/20 09:05:07;;;;;;;;;;;20.40;83.10;;;;;;5043886;28;20364;-72
2022/12/20 09:07:34;;;;;;;;;;;20.30;83.50;;;;;;5041948;28;19983;-71
2022/12/20 09:10:01;;;;;;;;;;;20.20;84.40;;;;;;5042159;28;19970;-71
2022/12/20 09:12:28;;;;;;;;;;;20.10;84.60;;;;;;5042803;28;20685;-71
2022/12/20 09:14:54;;;;;;;;;;;20.00;84.70;;;;;;5040052;28;19928;-71
2022/12/20 09:17:21;;;;;;;;;;;20.00;84.80;;;;;;5043031;28;19912;-71
2022/12/20 09:19:48;;;;;;;;;;;19.90;85.20;;;;;;5042102;28;19909;-72
2022/12/20 09:22:14;;;;;;;;;;;19.80;84.90;;;;;;5041987;28;19917;-71
2022/12/20 09:24:41;;;;;;;;;;;19.80;85.30;;;;;;5039437;28;19909;-71
2022/12/20 09:27:07;;;;;;;;;;;19.70;85.50;;;;;;5047083;28;19909;-71
2022/12/20 09:29:34;;;;;;;;;;;19.60;85.60;;;;;;5050123;28;19936;-73
2022/12/20 09:32:01;;;;;;;;;;;19.60;86.30;;;;;;5045878;28;19920;-70
2022/12/20 09:34:27;;;;;;;;;;;19.50;87.20;;;;;;5050408;28;19966;-70
2022/12/20 09:36:54;;;;;;;;;;;19.50;87.30;;;;;;5051750;28;19916;-72
2022/12/20 09:39:20;;;;;;;;;;;19.40;88.00;;;;;;5049989;28;19912;-70
2022/12/20 09:41:47;;;;;;;;;;;19.30;88.80;;;;;;5046017;28;19912;-71
2022/12/20 09:44:37;;;;;;;;;;;19.30;89.20;;;;;;5045602;28;19930;-69
2022/12/20 09:47:05;;;;;;;;;;;19.20;89.40;;;;;;5047334;28;19912;-70
2022/12/20 09:49:34;;;;;;;;;;;19.10;89.40;;;;;;5047753;28;20687;-70
2022/12/20 09:52:09;;;;;;;;;;;19.10;90.10;;;;;;5046062;28;20350;-72
2022/12/20 09:54:54;;;;;;;;;;;19.10;90.30;;;;;;5039446;28;19925;-72
2022/12/20 09:57:41;;;;;;;;;;;19.10;90.10;;;;;;5045630;28;19948;-70
2022/12/20 10:00:13;;;;;;;;;;;19.00;89.90;;;;;;5050590;28;19909;-72
2022/12/20 10:02:40;;;;;;;;;;;18.90;90.20;;;;;;5046316;28;20315;-73
2022/12/20 10:05:26;;;;;;;;;;;18.90;90.10;;;;;;5046074;28;19946;-72
2022/12/20 10:08:08;;;;;;;;;;;18.90;90.20;;;;;;5044024;28;19920;-71
2022/12/20 10:10:34;;;;;;;;;;;18.90;90.20;;;;;;5049162;28;19942;-71
2022/12/20 10:13:02;;;;;;;;;;;19.00;90.10;;;;;;5054149;28;20464;-73
2022/12/20 10:15:32;;;;;;;;;;;19.00;90.10;;;;;;5040079;28;19975;-72
2022/12/20 10:18:05;;;;;;;;;;;19.00;90.30;;;;;;5035821;28;19909;-71
2022/12/20 10:20:34;;;;;;;;;;;19.00;90.20;;;;;;5044346;28;20783;-72
2022/12/20 10:23:16;;;;;;;;;;;19.00;90.40;;;;;;5042663;28;19921;-70
2022/12/20 10:25:44;;;;;;;;;;;19.00;90.50;;;;;;5052374;28;19912;-71
2022/12/20 10:28:15;;;;;;;;;;;19.00;90.70;;;;;;5044928;28;19975;-70
2022/12/20 10:30:43;;;;;;;;;;;19.00;90.20;;;;;;5048635;28;19913;-70
2022/12/20 10:33:19;;;;;;;;;;;19.00;90.30;;;;;;5042432;28;19987;-79
2022/12/20 10:35:46;;;;;;;;;;;18.90;90.20;;;;;;5040762;28;20347;-72
2022/12/20 10:38:16;;;;;;;;;;;19.00;90.20;;;;;;5053385;28;19913;-71
2022/12/20 10:40:44;;;;;;;;;;;18.90;89.90;;;;;;5056406;28;19935;-72
2022/12/20 10:43:16;;;;;;;;;;;18.90;90.10;;;;;;5054034;28;19912;-72
2022/12/20 10:45:43;;;;;;;;;;;18.90;90.00;;;;;;5050591;28;19912;-72
2022/12/20 10:48:28;;;;;;;;;;;18.80;90.00;;;;;;5047897;28;19919;-72
2022/12/20 10:50:55;;;;;;;;;;;18.80;90.20;;;;;;5052196;28;20302;-71
2022/12/20 10:53:24;;;;;;;;;;;18.80;90.50;;;;;;5055356;28;19913;-72
2022/12/20 10:55:51;;;;;;;;;;;18.70;90.80;;;;;;5039502;28;19920;-72
2022/12/20 10:58:21;;;;;;;;;;;18.70;90.90;;;;;;5039185;28;19935;-75
2022/12/20 11:00:48;;;;;;;;;;;18.70;90.80;;;;;;5054816;28;19908;-75
2022/12/20 11:03:19;;;;;;;;;;;18.70;90.50;;;;;;5053874;28;19905;-76
2022/12/20 11:06:12;;;;;;;;;;;18.60;90.50;;;;;;5036886;28;19917;-78
2022/12/20 11:08:39;;;;;;;;;;;18.60;90.90;;;;;;5035342;28;19913;-73
2022/12/20 11:11:15;;;;;;;;;;;18.60;91.00;;;;;;5043273;28;19959;-71
2022/12/20 11:13:42;;;;;;;;;;;18.50;90.90;;;;;;5034667;28;19974;-72
2022/12/20 11:16:24;;;;;;;;;;;18.50;91.10;;;;;;5053773;28;20305;-76
2022/12/20 11:19:13;;;;;;;;;;;18.50;91.30;;;;;;5054457;28;19971;-72
2022/12/20 11:21:46;;;;;;;;;;;18.60;91.50;;;;;;5053501;28;19952;-72
2022/12/20 11:24:41;;;;;;;;;;;18.60;91.70;;;;;;5033903;28;19980;-74
2022/12/20 11:27:15;;;;;;;;;;;18.50;91.70;;;;;;5044416;28;19919;-73
2022/12/20 11:29:59;;;;;;;;;;;18.60;92.30;;;;;;5035252;28;19909;-72
2022/12/20 11:32:41;;;;;;;;;;;18.50;92.20;;;;;;5034561;28;19947;-72
2022/12/20 11:35:14;;;;;;;;;;;18.60;92.50;;;;;;5045603;28;20407;-72
2022/12/20 11:37:59;;;;;;;;;;;18.60;92.90;;;;;;5054955;28;19908;-71
2022/12/20 11:40:45;;;;;;;;;;;18.50;93.00;;;;;;5053103;28;19909;-74
2022/12/20 11:43:15;;;;;;;;;;;18.40;93.30;;;;;;5053123;28;20050;-73
2022/12/20 11:45:44;;;;;;;;;;;18.50;93.80;;;;;;5036241;28;19921;-74
2022/12/20 11:48:20;;;;;;;;;;;18.60;93.80;;;;;;5033646;28;20011;-75
2022/12/20 11:51:06;;;;;;;;;;;18.50;94.00;;;;;;5033543;28;20554;-72
2022/12/20 11:53:47;;;;;;;;;;;18.50;94.20;;;;;;5039776;28;19916;-72
2022/12/20 11:56:22;;;;;;;;;;;18.50;94.60;;;;;;5041389;28;19917;-74
2022/12/20 11:58:48;;;;;;;;;;;18.50;94.40;;;;;;5033954;28;20382;-74
2022/12/20 12:01:20;;;;;;;;;;;18.40;94.80;;;;;;5033689;28;19978;-70
2022/12/20 12:03:46;;;;;;;;;;;18.30;95.20;;;;;;5034332;28;19912;-73
2022/12/20 12:06:22;;;;;;;;;;;18.50;95.60;;;;;;5044450;28;20365;-75
2022/12/20 12:09:06;;;;;;;;;;;18.50;95.80;;;;;;5053348;28;19912;-73
2022/12/20 12:11:35;;;;;;;;;;;18.40;96.10;;;;;;5051861;28;19908;-74
2022/12/20 12:14:02;;;;;;;;;;;18.40;96.30;;;;;;5052984;28;19917;-73
2022/12/20 12:16:29;;;;;;;;;;;18.40;96.60;;;;;;5051387;28;19908;-72
2022/12/20 12:18:57;;;;;;;;;;;18.40;96.80;;;;;;5053172;28;20361;-75
2022/12/20 12:21:39;;;;;;;;;;;18.40;96.80;;;;;;5042942;28;19912;-72
2022/12/20 12:24:05;;;;;;;;;;;18.40;96.80;;;;;;5032432;28;20007;-72
2022/12/20 12:26:33;;;;;;;;;;;18.50;96.70;;;;;;5033137;28;19992;-71
2022/12/20 12:29:00;;;;;;;;;;;18.60;96.70;;;;;;5034250;28;20352;-72
2022/12/20 12:31:56;;;;;;;;;;;18.70;96.60;;;;;;5049320;28;20829;-71
2022/12/20 12:34:41;;;;;;;;;;;18.70;96.80;;;;;;5051604;28;19928;-76
2022/12/20 12:37:10;;;;;;;;;;;18.80;96.60;;;;;;5052804;28;19915;-72
2022/12/20 12:39:49;;;;;;;;;;;18.70;96.60;;;;;;5053054;28;20062;-70
2022/12/20 12:42:29;;;;;;;;;;;18.70;96.80;;;;;;5044152;28;19909;-69
2022/12/20 12:44:55;;;;;;;;;;;18.70;97.00;;;;;;5032079;28;20326;-72
2022/12/20 12:47:44;;;;;;;;;;;18.60;97.40;;;;;;5033194;28;19909;-71
2022/12/20 12:50:32;;;;;;;;;;;18.80;98.20;;;;;;5041795;28;20690;-71
2022/12/20 12:53:13;;;;;;;;;;;18.70;98.80;;;;;;5032859;28;19956;-71
2022/12/20 12:55:44;;;;;;;;;;;18.80;99.90;;;;;;5041969;28;20805;-71
2022/12/20 12:58:23;;;;;;;;;;;18.70;99.90;;;;;;5033186;28;19995;-70
2022/12/20 13:00:53;;;;;;;;;;;18.60;99.90;;;;;;5034043;28;19909;-69
2022/12/20 13:03:38;;;;;;;;;;;18.60;99.90;;;;;;5037348;28;20309;-71
2022/12/20 13:06:24;;;;;;;;;;;18.50;99.90;;;;;;5043754;28;19991;-70
2022/12/20 13:08:59;;;;;;;;;;;18.40;99.90;;;;;;5057247;28;19997;-72
2022/12/20 13:11:35;;;;;;;;;;;18.30;99.90;;;;;;5057037;28;19995;-73
2022/12/20 13:14:26;;;;;;;;;;;18.20;99.90;;;;;;5055709;28;20302;-72
2022/12/20 13:17:01;;;;;;;;;;;18.10;99.90;;;;;;5045578;28;20007;-73
2022/12/20 13:19:28;;;;;;;;;;;18.00;99.90;;;;;;5052683;28;19919;-72
2022/12/20 13:21:59;;;;;;;;;;;18.00;99.90;;;;;;5057091;28;20296;-72
2022/12/20 13:24:34;;;;;;;;;;;17.90;99.90;;;;;;5057242;28;19947;-71
2022/12/20 13:27:02;;;;;;;;;;;17.90;99.90;;;;;;5056664;28;19909;-73
2022/12/20 13:29:35;;;;;;;;;;;17.90;99.90;;;;;;5056211;28;19908;-75
2022/12/20 13:32:02;;;;;;;;;;;17.90;99.90;;;;;;5035479;28;19995;-73
2022/12/20 13:34:35;;;;;;;;;;;17.80;99.90;;;;;;5036750;28;19917;-74
2022/12/20 13:37:02;;;;;;;;;;;17.70;99.90;;;;;;5036246;28;19912;-76
2022/12/20 13:39:32;;;;;;;;;;;17.80;99.90;;;;;;5038150;28;19909;-72
2022/12/20 13:42:15;;;;;;;;;;;17.80;99.90;;;;;;5048816;28;19963;-76
2022/12/20 13:44:45;;;;;;;;;;;17.70;99.90;;;;;;5036641;28;19924;-78
2022/12/20 13:47:16;;;;;;;;;;;17.70;99.90;;;;;;5035889;28;20394;-71
2022/12/20 13:49:44;;;;;;;;;;;17.60;99.90;;;;;;5036441;28;19909;-72
2022/12/20 13:52:11;;;;;;;;;;;17.70;99.90;;;;;;5044693;28;19923;-72
2022/12/20 13:54:44;;;;;;;;;;;17.60;99.90;;;;;;5055596;28;19924;-72
2022/12/20 13:57:19;;;;;;;;;;;17.70;99.90;;;;;;5055051;28;20011;-71
2022/12/20 13:59:47;;;;;;;;;;;17.50;99.90;;;;;;5055992;28;19912;-76
2022/12/20 14:02:19;;;;;;;;;;;17.50;99.90;;;;;;5056868;28;19966;-71
2022/12/20 14:04:51;;;;;;;;;;;17.50;99.90;;;;;;5038942;28;19977;-73
2022/12/20 14:07:18;;;;;;;;;;;17.30;99.90;;;;;;5037911;28;19909;-74
2022/12/20 14:09:45;;;;;;;;;;;17.40;99.90;;;;;;5044553;28;19912;-75
2022/12/20 14:12:13;;;;;;;;;;;17.40;99.90;;;;;;5054812;28;19918;-70
2022/12/20 14:14:44;;;;;;;;;;;17.30;99.90;;;;;;5052731;28;19916;-73
2022/12/20 14:17:30;;;;;;;;;;;17.30;99.90;;;;;;5055984;28;20393;-71
2022/12/20 14:20:16;;;;;;;;;;;17.20;99.90;;;;;;5055344;28;19920;-71
2022/12/20 14:22:43;;;;;;;;;;;17.10;99.90;;;;;;5053547;28;19955;-71
2022/12/20 14:25:13;;;;;;;;;;;17.10;99.90;;;;;;5056184;28;19941;-73
2022/12/20 14:27:40;;;;;;;;;;;17.10;99.90;;;;;;5048523;28;19914;-75
2022/12/20 14:30:25;;;;;;;;;;;17.00;99.90;;;;;;5054891;28;19916;-70
2022/12/20 14:32:51;;;;;;;;;;;17.00;99.90;;;;;;5054663;28;19924;-72
2022/12/20 14:35:19;;;;;;;;;;;17.10;99.90;;;;;;5055447;28;19924;-72
2022/12/20 14:37:52;;;;;;;;;;;17.10;99.90;;;;;;5052203;28;19978;-72